createdAt,value
2023-05-17T00:04:28.860Z,15.34
2023-05-17T00:09:31.006Z,15.27
2023-05-17T00:14:33.220Z,15.15
2023-05-17T00:19:35.490Z,15.05
2023-05-17T00:24:38.621Z,14.97
2023-05-17T00:29:40.793Z,14.90
2023-05-17T00:34:43.023Z,14.86
2023-05-17T00:39:45.206Z,14.80
2023-05-17T00:44:47.304Z,14.77
2023-05-17T00:49:49.264Z,15.21
2023-05-17T00:54:52.219Z,14.76
2023-05-17T00:59:55.590Z,14.65
2023-05-17T01:04:59.341Z,14.58
2023-05-17T01:10:01.895Z,14.53
2023-05-17T01:15:16.015Z,14.55
2023-05-17T01:20:38.263Z,14.89
2023-05-17T01:25:52.202Z,14.41
2023-05-17T01:30:57.485Z,14.30
2023-05-17T01:35:59.604Z,14.23
2023-05-17T01:41:07.141Z,14.26
2023-05-17T01:46:32.080Z,14.37
2023-05-17T01:51:40.058Z,14.23
2023-05-17T01:56:46.756Z,14.26
2023-05-17T02:01:51.352Z,14.28
2023-05-17T02:06:53.500Z,14.21
2023-05-17T02:11:56.233Z,14.30
2023-05-17T02:16:58.624Z,14.35
2023-05-17T02:22:00.731Z,14.42
2023-05-17T02:27:05.203Z,14.46
2023-05-17T02:32:07.734Z,14.53
2023-05-17T02:37:09.871Z,14.63
2023-05-17T02:42:12.321Z,14.68
2023-05-17T02:47:14.474Z,14.75
2023-05-17T02:52:16.607Z,14.86
2023-05-17T02:57:19.337Z,14.97
2023-05-17T03:02:21.750Z,15.05
2023-05-17T03:07:23.914Z,15.16
2023-05-17T03:12:27.840Z,15.26
2023-05-17T03:17:31.660Z,15.37
2023-05-17T03:22:35.314Z,15.44
2023-05-17T03:27:38.102Z,15.62
2023-05-17T03:32:41.291Z,15.66
2023-05-17T03:37:43.441Z,15.78
2023-05-17T03:42:45.949Z,15.80
2023-05-17T03:47:48.430Z,16.04
2023-05-17T03:52:51.102Z,16.18
2023-05-17T03:57:54.017Z,16.31
2023-05-17T04:02:56.189Z,16.45
2023-05-17T04:07:58.480Z,16.61
2023-05-17T04:13:01.497Z,16.74
2023-05-17T04:18:03.989Z,16.89
2023-05-17T04:23:06.569Z,17.04
2023-05-17T04:28:10.972Z,17.18
2023-05-17T04:33:14.447Z,17.34
2023-05-17T04:38:17.262Z,17.53
2023-05-17T04:43:19.991Z,17.70
2023-05-17T04:48:22.816Z,17.86
2023-05-17T04:53:27.067Z,18.02
2023-05-17T04:58:29.552Z,18.06
2023-05-17T05:03:34.258Z,18.33
2023-05-17T05:08:37.701Z,18.53
2023-05-17T05:13:43.098Z,18.65
2023-05-17T05:18:45.572Z,19.08
2023-05-17T05:23:48.368Z,19.79
2023-05-17T05:28:51.451Z,20.79
2023-05-17T05:33:54.597Z,21.75
2023-05-17T05:38:56.818Z,22.63
2023-05-17T05:44:01.205Z,23.43
2023-05-17T05:49:03.938Z,24.23
2023-05-17T05:54:07.447Z,24.33
2023-05-17T05:59:09.589Z,24.38
2023-05-17T06:04:11.728Z,25.14
2023-05-17T06:09:13.806Z,25.95
2023-05-17T06:14:16.093Z,25.90
2023-05-17T06:19:18.405Z,26.05
2023-05-17T06:24:20.806Z,26.34
2023-05-17T06:29:24.160Z,26.82
2023-05-17T06:34:26.647Z,27.20
2023-05-17T06:39:28.755Z,27.44
2023-05-17T06:44:30.910Z,27.60
2023-05-17T06:49:33.051Z,27.57
2023-05-17T06:54:35.376Z,27.34
2023-05-17T06:59:37.630Z,27.44
2023-05-17T07:04:39.870Z,28.09
2023-05-17T07:09:41.986Z,28.75
2023-05-17T07:14:44.049Z,28.65
2023-05-17T07:19:46.452Z,28.64
2023-05-17T07:24:48.827Z,28.99
2023-05-17T07:29:54.948Z,29.78
2023-05-17T07:34:57.087Z,30.10
2023-05-17T07:39:59.266Z,30.83
2023-05-17T07:45:01.494Z,32.01
2023-05-17T07:50:07.617Z,32.18
2023-05-17T07:55:10.299Z,31.32
2023-05-17T08:00:13.741Z,31.07
2023-05-17T08:05:16.302Z,31.67
2023-05-17T08:10:18.551Z,32.34
2023-05-17T08:15:22.310Z,33.49
2023-05-17T08:20:24.624Z,34.54
2023-05-17T08:25:26.857Z,33.71
2023-05-17T08:30:29.637Z,33.25
2023-05-17T08:35:32.104Z,33.03
2023-05-17T08:40:34.532Z,33.37
2023-05-17T08:45:37.008Z,33.50
2023-05-17T08:50:40.015Z,34.40
2023-05-17T08:55:47.352Z,35.12
2023-05-17T09:00:50.381Z,35.31
2023-05-17T09:05:53.751Z,35.63
2023-05-17T09:10:59.418Z,36.20
2023-05-17T09:16:01.591Z,36.77
2023-05-17T09:21:07.276Z,36.96
2023-05-17T09:26:09.435Z,37.30
2023-05-17T09:31:15.338Z,37.71
2023-05-17T09:36:22.756Z,38.58
2023-05-17T09:41:30.244Z,37.20
2023-05-17T09:46:36.443Z,37.75
2023-05-17T09:51:47.669Z,37.69
2023-05-17T09:56:56.153Z,36.36
2023-05-17T10:01:59.957Z,35.99
2023-05-17T10:07:02.105Z,36.93
2023-05-17T10:12:06.124Z,37.97
2023-05-17T10:17:09.253Z,38.57
2023-05-17T10:27:22.112Z,39.31
2023-05-17T10:32:27.390Z,38.46
2023-05-17T10:37:31.036Z,38.63
2023-05-17T10:42:34.094Z,39.38
2023-05-17T10:47:36.461Z,39.53
2023-05-17T10:52:45.277Z,37.83
2023-05-17T10:58:18.445Z,37.56
2023-05-17T11:03:22.787Z,37.26
2023-05-17T11:08:24.838Z,37.93
2023-05-17T11:13:29.817Z,37.46
2023-05-17T11:18:48.761Z,36.96
2023-05-17T11:23:58.713Z,37.05
2023-05-17T11:29:03.033Z,39.18
2023-05-17T11:34:06.149Z,37.60
2023-05-17T11:39:12.842Z,37.30
2023-05-17T11:44:16.812Z,36.39
2023-05-17T11:49:34.135Z,36.79
2023-05-17T11:54:39.110Z,37.20
2023-05-17T11:59:41.326Z,35.85
2023-05-17T12:04:43.507Z,34.02
2023-05-17T12:09:46.672Z,34.46
2023-05-17T12:14:50.748Z,34.37
2023-05-17T12:19:54.455Z,34.92
2023-05-17T12:24:57.120Z,35.46
2023-05-17T12:29:59.238Z,36.32
2023-05-17T12:35:01.477Z,36.79
2023-05-17T12:40:05.443Z,36.33
2023-05-17T12:45:08.255Z,34.84
2023-05-17T12:50:11.647Z,33.54
2023-05-17T12:55:13.954Z,33.46
2023-05-17T13:00:16.903Z,34.30
2023-05-17T13:05:21.850Z,34.46
2023-05-17T13:10:28.101Z,33.76
2023-05-17T13:15:33.004Z,32.95
2023-05-17T13:20:35.176Z,32.96
2023-05-17T13:25:37.262Z,32.36
2023-05-17T13:30:40.086Z,31.54
2023-05-17T13:35:42.404Z,30.61
2023-05-17T13:40:44.589Z,29.57
2023-05-17T13:45:47.316Z,28.80
2023-05-17T13:50:49.457Z,28.32
2023-05-17T13:55:51.594Z,27.84
2023-05-17T14:00:53.864Z,27.63
2023-05-17T14:05:56.063Z,27.47
2023-05-17T14:10:58.222Z,27.04
2023-05-17T14:16:00.413Z,26.78
2023-05-17T14:21:03.614Z,26.68
2023-05-17T14:26:07.439Z,26.58
2023-05-17T14:31:10.938Z,26.41
2023-05-17T14:36:14.051Z,26.16
2023-05-17T14:41:18.587Z,26.18
2023-05-17T14:46:20.724Z,26.28
2023-05-17T14:51:23.797Z,26.22
2023-05-17T14:56:26.014Z,26.09
2023-05-17T15:01:28.142Z,26.01
2023-05-17T15:06:30.346Z,26.00
2023-05-17T15:11:33.794Z,25.88
2023-05-17T15:16:36.258Z,25.70
2023-05-17T15:21:38.404Z,25.54
2023-05-17T15:26:40.731Z,25.49
2023-05-17T15:31:42.942Z,25.39
2023-05-17T15:36:44.980Z,25.38
2023-05-17T15:41:47.136Z,25.26
2023-05-17T15:46:49.573Z,25.16
2023-05-17T15:51:51.767Z,25.22
2023-05-17T15:56:53.852Z,25.17
2023-05-17T16:01:55.931Z,25.15
2023-05-17T16:06:58.041Z,25.07
2023-05-17T16:12:00.263Z,25.01
2023-05-17T16:17:05.937Z,24.88
2023-05-17T16:22:08.117Z,24.75
2023-05-17T16:27:10.295Z,24.63
2023-05-17T16:32:12.383Z,24.49
2023-05-17T16:37:14.768Z,24.36
2023-05-17T16:42:17.042Z,24.22
2023-05-17T16:47:23.905Z,24.09
2023-05-17T16:52:26.710Z,23.96
2023-05-17T16:57:30.313Z,23.83
2023-05-17T17:02:32.560Z,23.68
2023-05-17T17:07:34.800Z,23.57
2023-05-17T17:12:36.909Z,23.45
2023-05-17T17:17:39.105Z,23.35
2023-05-17T17:22:41.584Z,23.26
2023-05-17T17:27:43.705Z,23.17
2023-05-17T17:32:46.182Z,23.06
2023-05-17T17:37:48.499Z,22.88
2023-05-17T17:42:50.659Z,22.90
2023-05-17T17:47:52.779Z,22.85
2023-05-17T17:52:55.034Z,22.77
2023-05-17T17:57:57.094Z,22.60
2023-05-17T18:02:59.394Z,22.56
2023-05-17T18:08:01.567Z,22.46
2023-05-17T18:13:04.862Z,22.39
2023-05-17T18:18:07.027Z,22.32
2023-05-17T18:23:09.196Z,22.28
2023-05-17T18:28:11.216Z,22.16
2023-05-17T18:33:13.334Z,22.07
2023-05-17T18:38:15.562Z,21.97
2023-05-17T18:43:17.797Z,21.88
2023-05-17T18:48:22.221Z,21.78
2023-05-17T18:53:24.588Z,21.75
2023-05-17T18:58:26.873Z,21.70
2023-05-17T19:03:28.942Z,21.60
2023-05-17T19:08:31.341Z,21.45
2023-05-17T19:13:33.692Z,21.34
2023-05-17T19:18:36.171Z,21.32
2023-05-17T19:23:38.488Z,21.24
2023-05-17T19:28:40.674Z,21.22
2023-05-17T19:33:42.942Z,21.18
2023-05-17T19:38:45.082Z,21.17
2023-05-17T19:43:47.218Z,21.08
2023-05-17T19:48:49.521Z,20.96
2023-05-17T19:53:54.053Z,20.85
2023-05-17T19:58:56.764Z,20.74
2023-05-17T20:03:58.946Z,20.77
2023-05-17T20:09:01.149Z,20.71
2023-05-17T20:14:04.493Z,20.63
2023-05-17T20:19:06.711Z,20.54
2023-05-17T20:24:09.098Z,20.42
2023-05-17T20:29:11.371Z,20.37
2023-05-17T20:34:13.810Z,20.39
2023-05-17T20:39:15.969Z,20.32
2023-05-17T20:44:18.837Z,20.30
2023-05-17T20:49:21.276Z,20.30
2023-05-17T20:54:25.527Z,20.23
2023-05-17T20:59:27.708Z,20.21
2023-05-17T21:04:29.990Z,20.11
2023-05-17T21:09:32.871Z,20.12
2023-05-17T21:14:35.006Z,20.10
2023-05-17T21:19:37.136Z,20.05
2023-05-17T21:24:40.207Z,19.98
2023-05-17T21:29:42.439Z,19.94
2023-05-17T21:34:45.276Z,19.85
2023-05-17T21:39:47.520Z,19.74
2023-05-17T21:44:49.773Z,19.48
2023-05-17T21:49:51.959Z,19.47
2023-05-17T21:54:54.090Z,19.45
2023-05-17T21:59:56.193Z,19.41
2023-05-17T22:04:58.246Z,19.33
2023-05-17T22:10:00.511Z,19.20
2023-05-17T22:15:02.811Z,19.20
2023-05-17T22:20:11.166Z,19.14
2023-05-17T22:25:13.891Z,19.05
2023-05-17T22:30:17.181Z,19.04
2023-05-17T22:35:19.266Z,18.92
2023-05-17T22:40:21.492Z,18.83
2023-05-17T22:45:26.024Z,18.75
2023-05-17T22:50:30.684Z,18.63
2023-05-17T22:55:33.008Z,18.48
2023-05-17T23:00:35.192Z,18.39
2023-05-17T23:05:37.950Z,18.33
2023-05-17T23:10:40.044Z,18.29
2023-05-17T23:15:47.072Z,18.27
2023-05-17T23:20:50.358Z,18.22
2023-05-17T23:25:52.526Z,18.15
2023-05-17T23:30:54.872Z,18.14
2023-05-17T23:36:00.053Z,18.14
2023-05-17T23:41:02.230Z,18.01
2023-05-17T23:46:04.972Z,17.81
2023-05-17T23:51:07.062Z,17.82
2023-05-17T23:56:09.140Z,17.74
